»·PEaware :: N236M KSMO-KSAN

N236M :: KSMO-KSAN

FLIGHT INFORMATION

Flight Status: Arrived
Operator: Privately registered:
United States
More flights under this callsign
Pilot: Mark 1 Aviation (4414)
Aircraft: ROCKWELL 200 COMMANDER
(M200)
More flights by this aircraft type
Origin: KSMO Santa Monica Mun
United States
Destination: KSAN San Diego Intl-Lindbergh
United States
More flights between these airports :: More routes between these airports
Route: +SMO SMO125R V64 V363 DANAH V23 MZB
File this flight plan on PilotEdge
Remarks: TEC Route requested
Altitude:
(Current/Filed)
5,000ft
Speed:
(Current/Filed)
170kts
Departed: 20-Nov-14 03:23 PM
Arrived: 20-Nov-14 04:25 PM
Distance/Time
Traveled:
100nm/1:02
Distance/Time
To Go:
Arrived

Flight Plot

Page will automatically refresh every two minutes.


Map Options




Map Legend


Flown Route
Filed Route
Departure Airport
Arrival Airport
Navaid (VOR, NDB)
Fix

Horizontal Profiles

Position Reports

Time Latitude Longitude Heading Altitude Ground
Speed
20-Nov-14 15:02 34.012778 -118.451788 178 180ft 0kts
20-Nov-14 15:03 34.012778 -118.451788 178 180ft 0kts
20-Nov-14 15:04 34.012778 -118.451788 178 180ft 0kts
20-Nov-14 15:05 34.012778 -118.451788 178 180ft 0kts
20-Nov-14 15:06 34.012778 -118.451788 178 180ft 0kts
20-Nov-14 15:07 34.012778 -118.451788 178 180ft 0kts
20-Nov-14 15:08 34.012778 -118.451788 178 180ft 0kts
20-Nov-14 15:09 34.012778 -118.451788 178 180ft 0kts
20-Nov-14 15:10 34.012778 -118.451788 178 180ft 0kts
20-Nov-14 15:11 34.012778 -118.451788 178 180ft 0kts
20-Nov-14 15:12 34.012778 -118.451788 178 180ft 0kts
20-Nov-14 15:13 34.012778 -118.451788 178 180ft 0kts
20-Nov-14 15:14 34.012778 -118.451788 178 180ft 0kts
20-Nov-14 15:15 34.012771 -118.451880 326 180ft 2kts
20-Nov-14 15:16 34.015025 -118.451208 45 180ft 19kts
20-Nov-14 15:17 34.018804 -118.446744 42 181ft 14kts
20-Nov-14 15:18 34.019847 -118.445575 10 181ft 0kts
20-Nov-14 15:19 34.019930 -118.445572 355 181ft 0kts
20-Nov-14 15:20 34.020257 -118.446002 257 181ft 17kts
20-Nov-14 15:21 34.009365 -118.459489 228 657ft 81kts
20-Nov-14 15:22 33.993951 -118.477908 222 1507ft 67kts
20-Nov-14 15:23 33.987795 -118.499326 264 2211ft 72kts
20-Nov-14 15:24 33.986432 -118.522396 264 2993ft 66kts
20-Nov-14 15:25 33.987890 -118.548013 311 3816ft 95kts
20-Nov-14 15:26 34.005285 -118.529369 89 4655ft 119kts
20-Nov-14 15:27 34.007912 -118.485595 86 5072ft 156kts
20-Nov-14 15:28 33.992746 -118.438444 143 4990ft 170kts
20-Nov-14 15:29 33.957318 -118.402395 142 5058ft 168kts
20-Nov-14 15:30 33.926625 -118.371236 142 5033ft 170kts
20-Nov-14 15:31 33.897571 -118.341449 142 4967ft 170kts
20-Nov-14 15:32 33.865127 -118.310520 143 4968ft 168kts
20-Nov-14 15:33 33.838748 -118.273905 108 5015ft 171kts
20-Nov-14 15:34 33.829826 -118.237895 108 4991ft 174kts
20-Nov-14 15:35 33.816998 -118.187218 109 4989ft 176kts
20-Nov-14 15:36 33.802635 -118.130724 109 4933ft 177kts
20-Nov-14 15:37 33.788271 -118.074356 109 4930ft 176kts
20-Nov-14 15:38 33.780372 -118.016342 96 4936ft 177kts
20-Nov-14 15:39 33.776085 -117.958717 96 4930ft 178kts
20-Nov-14 15:40 33.771671 -117.899939 97 4930ft 178kts
20-Nov-14 15:41 33.767503 -117.842748 97 4929ft 178kts
20-Nov-14 15:42 33.763082 -117.784543 97 4932ft 178kts
20-Nov-14 15:43 33.729835 -117.755670 163 4944ft 168kts
20-Nov-14 15:44 33.690765 -117.737916 161 4925ft 169kts
20-Nov-14 15:45 33.648815 -117.726431 175 4922ft 167kts
20-Nov-14 15:46 33.603276 -117.718830 174 4927ft 166kts
20-Nov-14 15:47 33.557937 -117.711229 174 4926ft 166kts
20-Nov-14 15:48 33.512520 -117.703622 174 4932ft 166kts
20-Nov-14 15:49 33.470093 -117.685771 138 4904ft 173kts
20-Nov-14 15:50 33.447241 -117.637578 134 4924ft 173kts
20-Nov-14 15:51 33.412818 -117.598310 141 4930ft 172kts
20-Nov-14 15:52 33.377008 -117.560649 140 4934ft 172kts
20-Nov-14 15:53 33.341466 -117.522511 141 4930ft 172kts
20-Nov-14 15:54 33.305869 -117.484789 141 4920ft 172kts
20-Nov-14 15:55 33.272546 -117.449532 141 4920ft 172kts
20-Nov-14 15:56 33.240054 -117.416120 156 4890ft 171kts
20-Nov-14 15:57 33.196085 -117.398839 163 4927ft 168kts
20-Nov-14 15:58 33.151943 -117.380336 163 4920ft 168kts
20-Nov-14 15:59 33.108197 -117.361937 163 4920ft 168kts
20-Nov-14 16:00 33.064192 -117.343445 163 4919ft 168kts
20-Nov-14 16:01 33.020351 -117.324979 163 4919ft 168kts
20-Nov-14 16:02 32.976375 -117.306344 163 4919ft 168kts
20-Nov-14 16:03 32.932914 -117.288028 163 4919ft 168kts
20-Nov-14 16:04 32.888818 -117.269468 163 4919ft 168kts
20-Nov-14 16:05 32.845947 -117.251341 163 4913ft 158kts
20-Nov-14 16:06 32.816611 -117.217916 113 4926ft 158kts
20-Nov-14 16:07 32.801187 -117.169466 113 4916ft 156kts
20-Nov-14 16:08 32.785975 -117.121610 113 4919ft 156kts
20-Nov-14 16:09 32.772769 -117.079195 113 4919ft 122kts
20-Nov-14 16:10 32.761367 -117.041859 113 4921ft 121kts
20-Nov-14 16:11 32.749447 -117.003142 113 4916ft 127kts
20-Nov-14 16:12 32.735304 -116.963306 132 4605ft 133kts
20-Nov-14 16:13 32.710759 -116.928508 133 3960ft 140kts
20-Nov-14 16:14 32.687145 -116.901809 180 3911ft 119kts
20-Nov-14 16:15 32.675687 -116.933355 270 3706ft 120kts
20-Nov-14 16:16 32.681389 -116.972324 280 3560ft 116kts
20-Nov-14 16:17 32.690401 -117.011910 283 3027ft 128kts
20-Nov-14 16:18 32.700156 -117.052187 283 2394ft 130kts
20-Nov-14 16:19 32.709582 -117.090919 283 1948ft 106kts
20-Nov-14 16:20 32.716649 -117.120022 283 1046ft 88kts
20-Nov-14 16:21 32.723674 -117.147514 281 617ft 84kts
20-Nov-14 16:22 32.729163 -117.171267 281 211ft 77kts
20-Nov-14 16:23 32.733268 -117.188068 340 21ft 16kts

Navigation Log

Ident Type
Flight plan parsing failed, navigation log unavailable